sensor_id;sensor_type;location;lat;lon;timestamp;pressure;altitude;pressure_sealevel;temperature;humidity
3544;BME280;1786;52.870;9.578;2022-09-20T00:01:27;100864.25;;;22.97;50.92
3544;BME280;1786;52.870;9.578;2022-09-20T00:03:58;100866.63;;;23.08;50.84
3544;BME280;1786;52.870;9.578;2022-09-20T00:06:29;100868.97;;;23.19;50.67
3544;BME280;1786;52.870;9.578;2022-09-20T00:08:57;100864.56;;;23.26;50.50
3544;BME280;1786;52.870;9.578;2022-09-20T00:11:26;100867.56;;;23.40;50.27
3544;BME280;1786;52.870;9.578;2022-09-20T00:13:55;100874.97;;;23.38;50.44
3544;BME280;1786;52.870;9.578;2022-09-20T00:16:34;100861.31;;;23.39;50.36
3544;BME280;1786;52.870;9.578;2022-09-20T00:19:02;100866.81;;;23.54;49.87
3544;BME280;1786;52.870;9.578;2022-09-20T00:21:31;100860.19;;;23.73;49.25
3544;BME280;1786;52.870;9.578;2022-09-20T00:23:58;100866.94;;;23.13;50.54
3544;BME280;1786;52.870;9.578;2022-09-20T00:26:26;100865.28;;;23.12;50.81
3544;BME280;1786;52.870;9.578;2022-09-20T00:28:53;100877.31;;;23.41;50.34
3544;BME280;1786;52.870;9.578;2022-09-20T00:31:20;100870.28;;;23.23;50.02
3544;BME280;1786;52.870;9.578;2022-09-20T00:33:47;100865.59;;;23.17;50.12
3544;BME280;1786;52.870;9.578;2022-09-20T00:36:32;100862.72;;;23.27;50.20
3544;BME280;1786;52.870;9.578;2022-09-20T00:39:00;100872.66;;;23.26;50.17
3544;BME280;1786;52.870;9.578;2022-09-20T00:41:29;100865.13;;;23.14;50.17
3544;BME280;1786;52.870;9.578;2022-09-20T00:43:57;100872.94;;;23.40;49.73
3544;BME280;1786;52.870;9.578;2022-09-20T00:46:33;100873.88;;;23.07;50.35
3544;BME280;1786;52.870;9.578;2022-09-20T00:49:17;100877.88;;;23.20;50.00
3544;BME280;1786;52.870;9.578;2022-09-20T00:51:48;100876.25;;;23.02;50.71
3544;BME280;1786;52.870;9.578;2022-09-20T00:54:19;100877.84;;;23.28;50.26
3544;BME280;1786;52.870;9.578;2022-09-20T00:56:47;100880.41;;;23.29;49.83
3544;BME280;1786;52.870;9.578;2022-09-20T00:59:21;100880.31;;;23.46;49.61
3544;BME280;1786;52.870;9.578;2022-09-20T01:01:51;100877.72;;;23.21;49.73
3544;BME280;1786;52.870;9.578;2022-09-20T01:04:21;100882.78;;;23.24;49.73
3544;BME280;1786;52.870;9.578;2022-09-20T01:06:51;100882.41;;;23.27;50.12
3544;BME280;1786;52.870;9.578;2022-09-20T01:09:19;100888.47;;;23.29;49.95
3544;BME280;1786;52.870;9.578;2022-09-20T01:11:46;100887.53;;;22.65;51.18
3544;BME280;1786;52.870;9.578;2022-09-20T01:14:15;100892.06;;;22.89;50.46
3544;BME280;1786;52.870;9.578;2022-09-20T01:16:44;100882.81;;;22.83;50.99
3544;BME280;1786;52.870;9.578;2022-09-20T01:20:18;100892.53;;;23.25;49.97
3544;BME280;1786;52.870;9.578;2022-09-20T01:22:25;100885.81;;;22.97;50.57
3544;BME280;1786;52.870;9.578;2022-09-20T01:25:06;100886.84;;;23.12;50.39
3544;BME280;1786;52.870;9.578;2022-09-20T01:27:46;100890.38;;;22.88;50.84
3544;BME280;1786;52.870;9.578;2022-09-20T01:30:18;100882.97;;;22.82;51.34
3544;BME280;1786;52.870;9.578;2022-09-20T01:32:51;100890.41;;;23.04;50.41
3544;BME280;1786;52.870;9.578;2022-09-20T01:35:22;100893.78;;;22.98;50.49
3544;BME280;1786;52.870;9.578;2022-09-20T01:40:57;100899.97;;;23.15;50.18
3544;BME280;1786;52.870;9.578;2022-09-20T01:43:33;100896.59;;;23.13;49.94
3544;BME280;1786;52.870;9.578;2022-09-20T01:48:46;100894.09;;;23.11;50.29
3544;BME280;1786;52.870;9.578;2022-09-20T01:54:29;100907.31;;;23.38;49.24
3544;BME280;1786;52.870;9.578;2022-09-20T01:59:56;100908.56;;;23.10;49.96
3544;BME280;1786;52.870;9.578;2022-09-20T02:05:37;100906.41;;;22.73;50.31
3544;BME280;1786;52.870;9.578;2022-09-20T02:08:46;100913.28;;;23.00;50.16
3544;BME280;1786;52.870;9.578;2022-09-20T02:11:16;100913.63;;;22.81;50.53
3544;BME280;1786;52.870;9.578;2022-09-20T02:17:12;100914.31;;;22.99;50.50
3544;BME280;1786;52.870;9.578;2022-09-20T02:19:53;100913.81;;;23.04;50.10
3544;BME280;1786;52.870;9.578;2022-09-20T02:25:39;100919.56;;;23.01;50.31
3544;BME280;1786;52.870;9.578;2022-09-20T02:31:26;100906.91;;;22.60;51.25
3544;BME280;1786;52.870;9.578;2022-09-20T02:34:22;100913.94;;;22.78;50.84
3544;BME280;1786;52.870;9.578;2022-09-20T02:37:20;100915.63;;;22.95;50.75
3544;BME280;1786;52.870;9.578;2022-09-20T02:46:00;100915.31;;;22.90;51.33
3544;BME280;1786;52.870;9.578;2022-09-20T02:48:40;100919.22;;;23.04;50.99
3544;BME280;1786;52.870;9.578;2022-09-20T02:51:19;100916.50;;;22.96;50.86
3544;BME280;1786;52.870;9.578;2022-09-20T02:53:58;100916.66;;;23.02;51.19
3544;BME280;1786;52.870;9.578;2022-09-20T02:56:35;100917.84;;;22.83;51.75
3544;BME280;1786;52.870;9.578;2022-09-20T02:59:20;100915.16;;;22.83;51.58
3544;BME280;1786;52.870;9.578;2022-09-20T03:02:05;100920.34;;;22.85;51.58
3544;BME280;1786;52.870;9.578;2022-09-20T03:04:50;100917.16;;;22.40;51.98
3544;BME280;1786;52.870;9.578;2022-09-20T03:10:42;100920.75;;;22.98;50.80
3544;BME280;1786;52.870;9.578;2022-09-20T03:16:45;100930.13;;;22.86;50.88
3544;BME280;1786;52.870;9.578;2022-09-20T03:22:25;100937.34;;;22.36;51.53
3544;BME280;1786;52.870;9.578;2022-09-20T03:30:45;100934.97;;;22.41;51.26
3544;BME280;1786;52.870;9.578;2022-09-20T03:33:39;100936.06;;;22.14;51.72
3544;BME280;1786;52.870;9.578;2022-09-20T03:36:40;100934.31;;;22.39;50.70
3544;BME280;1786;52.870;9.578;2022-09-20T03:42:08;100945.47;;;23.02;50.00
3544;BME280;1786;52.870;9.578;2022-09-20T03:50:41;100952.69;;;23.34;49.07
3544;BME280;1786;52.870;9.578;2022-09-20T03:56:25;100953.16;;;23.54;49.16
3544;BME280;1786;52.870;9.578;2022-09-20T04:01:53;100948.22;;;23.74;49.04
3544;BME280;1786;52.870;9.578;2022-09-20T04:04:51;100953.38;;;23.84;48.66
3544;BME280;1786;52.870;9.578;2022-09-20T04:07:49;100959.78;;;23.91;48.97
3544;BME280;1786;52.870;9.578;2022-09-20T04:10:39;100951.69;;;23.91;48.67
3544;BME280;1786;52.870;9.578;2022-09-20T04:13:33;100956.81;;;24.09;48.67
3544;BME280;1786;52.870;9.578;2022-09-20T04:16:17;100953.59;;;24.13;48.95
3544;BME280;1786;52.870;9.578;2022-09-20T04:21:42;100967.56;;;24.25;48.24
3544;BME280;1786;52.870;9.578;2022-09-20T04:24:18;100969.72;;;24.30;48.21
3544;BME280;1786;52.870;9.578;2022-09-20T04:26:56;100981.00;;;24.33;48.75
3544;BME280;1786;52.870;9.578;2022-09-20T04:29:43;100976.44;;;24.34;48.24
3544;BME280;1786;52.870;9.578;2022-09-20T04:32:23;100975.75;;;24.40;48.39
3544;BME280;1786;52.870;9.578;2022-09-20T04:35:17;100973.56;;;24.35;48.46
3544;BME280;1786;52.870;9.578;2022-09-20T04:38:11;100980.28;;;24.48;48.23
3544;BME280;1786;52.870;9.578;2022-09-20T04:44:05;100984.97;;;24.54;48.06
3544;BME280;1786;52.870;9.578;2022-09-20T04:55:17;101007.47;;;24.46;48.59
3544;BME280;1786;52.870;9.578;2022-09-20T05:03:44;101007.47;;;24.46;48.64
3544;BME280;1786;52.870;9.578;2022-09-20T05:12:26;101020.16;;;24.69;48.17
3544;BME280;1786;52.870;9.578;2022-09-20T05:17:40;101025.19;;;24.49;48.87
3544;BME280;1786;52.870;9.578;2022-09-20T05:23:13;101027.50;;;24.52;49.09
3544;BME280;1786;52.870;9.578;2022-09-20T05:28:55;101022.13;;;24.52;49.58
3544;BME280;1786;52.870;9.578;2022-09-20T05:31:39;101027.19;;;24.55;49.82
3544;BME280;1786;52.870;9.578;2022-09-20T05:36:57;101037.72;;;24.73;49.46
3544;BME280;1786;52.870;9.578;2022-09-20T05:39:44;101037.78;;;25.11;50.54
3544;BME280;1786;52.870;9.578;2022-09-20T05:42:21;101037.09;;;25.84;50.02
3544;BME280;1786;52.870;9.578;2022-09-20T05:45:15;101049.22;;;26.33;48.13
3544;BME280;1786;52.870;9.578;2022-09-20T05:48:09;101049.59;;;26.45;47.32
3544;BME280;1786;52.870;9.578;2022-09-20T05:50:57;101046.97;;;26.51;47.40
3544;BME280;1786;52.870;9.578;2022-09-20T05:59:20;101048.84;;;25.77;47.67
3544;BME280;1786;52.870;9.578;2022-09-20T06:02:01;101053.50;;;25.53;47.99
3544;BME280;1786;52.870;9.578;2022-09-20T06:05:08;101052.75;;;25.59;48.55
3544;BME280;1786;52.870;9.578;2022-09-20T06:07:52;101059.94;;;25.06;49.22
3544;BME280;1786;52.870;9.578;2022-09-20T06:10:51;101063.16;;;25.33;48.93
3544;BME280;1786;52.870;9.578;2022-09-20T06:15:59;101059.75;;;25.54;48.35
3544;BME280;1786;52.870;9.578;2022-09-20T06:18:35;101060.63;;;25.31;49.13
3544;BME280;1786;52.870;9.578;2022-09-20T06:21:36;101065.78;;;25.41;49.20
3544;BME280;1786;52.870;9.578;2022-09-20T06:26:58;101070.94;;;25.04;49.96
3544;BME280;1786;52.870;9.578;2022-09-20T06:29:31;101071.66;;;24.98;50.22
3544;BME280;1786;52.870;9.578;2022-09-20T06:31:59;101076.78;;;24.93;50.34
3544;BME280;1786;52.870;9.578;2022-09-20T06:34:27;101076.09;;;25.22;50.09
3544;BME280;1786;52.870;9.578;2022-09-20T06:37:03;101078.63;;;25.16;49.62
3544;BME280;1786;52.870;9.578;2022-09-20T06:40:03;101082.47;;;24.98;49.96
3544;BME280;1786;52.870;9.578;2022-09-20T06:42:57;101077.72;;;25.46;49.21
3544;BME280;1786;52.870;9.578;2022-09-20T06:45:25;101080.72;;;25.52;48.81
3544;BME280;1786;52.870;9.578;2022-09-20T06:47:52;101083.88;;;25.40;49.07
3544;BME280;1786;52.870;9.578;2022-09-20T06:50:19;101084.22;;;25.60;49.21
3544;BME280;1786;52.870;9.578;2022-09-20T06:52:45;101088.13;;;25.73;49.24
3544;BME280;1786;52.870;9.578;2022-09-20T06:55:19;101085.59;;;25.56;48.77
3544;BME280;1786;52.870;9.578;2022-09-20T06:57:53;101082.72;;;25.96;49.18
3544;BME280;1786;52.870;9.578;2022-09-20T07:00:19;101095.66;;;26.15;48.68
3544;BME280;1786;52.870;9.578;2022-09-20T07:02:46;101097.94;;;26.56;48.67
3544;BME280;1786;52.870;9.578;2022-09-20T07:05:15;101105.31;;;26.84;49.28
3544;BME280;1786;52.870;9.578;2022-09-20T07:07:42;101103.03;;;27.02;47.34
3544;BME280;1786;52.870;9.578;2022-09-20T07:10:13;101102.75;;;27.61;46.42
3544;BME280;1786;52.870;9.578;2022-09-20T07:12:40;101120.19;;;27.95;45.71
3544;BME280;1786;52.870;9.578;2022-09-20T07:15:07;101117.13;;;28.12;45.57
3544;BME280;1786;52.870;9.578;2022-09-20T07:17:34;101115.25;;;28.12;45.28
3544;BME280;1786;52.870;9.578;2022-09-20T07:20:01;101122.25;;;27.93;45.02
3544;BME280;1786;52.870;9.578;2022-09-20T07:22:28;101119.16;;;27.75;46.35
3544;BME280;1786;52.870;9.578;2022-09-20T07:24:55;101127.28;;;27.96;45.58
3544;BME280;1786;52.870;9.578;2022-09-20T07:27:21;101132.06;;;27.94;45.93
3544;BME280;1786;52.870;9.578;2022-09-20T07:29:52;101132.91;;;28.23;46.69
3544;BME280;1786;52.870;9.578;2022-09-20T07:32:19;101135.22;;;29.42;46.90
3544;BME280;1786;52.870;9.578;2022-09-20T07:34:46;101149.88;;;31.63;42.91
3544;BME280;1786;52.870;9.578;2022-09-20T07:37:16;101160.69;;;33.12;41.40
3544;BME280;1786;52.870;9.578;2022-09-20T07:39:44;101167.94;;;34.66;37.81
3544;BME280;1786;52.870;9.578;2022-09-20T07:42:11;101171.19;;;35.49;36.98
3544;BME280;1786;52.870;9.578;2022-09-20T07:44:38;101176.16;;;36.03;36.54
3544;BME280;1786;52.870;9.578;2022-09-20T07:47:08;101166.19;;;35.96;35.75
3544;BME280;1786;52.870;9.578;2022-09-20T07:49:36;101172.13;;;34.97;36.40
3544;BME280;1786;52.870;9.578;2022-09-20T07:52:02;101164.06;;;34.03;37.16
3544;BME280;1786;52.870;9.578;2022-09-20T07:54:29;101159.59;;;33.13;38.50
3544;BME280;1786;52.870;9.578;2022-09-20T07:56:56;101155.63;;;32.79;38.98
3544;BME280;1786;52.870;9.578;2022-09-20T07:59:23;101156.47;;;32.61;38.39
3544;BME280;1786;52.870;9.578;2022-09-20T08:01:50;101151.19;;;32.41;40.36
3544;BME280;1786;52.870;9.578;2022-09-20T08:04:17;101150.59;;;32.20;39.80
3544;BME280;1786;52.870;9.578;2022-09-20T08:06:44;101159.56;;;31.59;40.01
3544;BME280;1786;52.870;9.578;2022-09-20T08:09:13;101157.56;;;31.47;41.46
3544;BME280;1786;52.870;9.578;2022-09-20T08:11:40;101155.69;;;31.03;41.50
3544;BME280;1786;52.870;9.578;2022-09-20T08:14:12;101154.63;;;31.04;40.66
3544;BME280;1786;52.870;9.578;2022-09-20T08:16:43;101152.56;;;30.41;41.20
3544;BME280;1786;52.870;9.578;2022-09-20T08:19:15;101150.94;;;30.13;42.56
3544;BME280;1786;52.870;9.578;2022-09-20T08:21:43;101150.91;;;30.47;42.21
3544;BME280;1786;52.870;9.578;2022-09-20T08:24:10;101159.28;;;30.38;41.91
3544;BME280;1786;52.870;9.578;2022-09-20T08:26:37;101159.72;;;30.35;42.50
3544;BME280;1786;52.870;9.578;2022-09-20T08:29:04;101158.41;;;30.58;41.66
3544;BME280;1786;52.870;9.578;2022-09-20T08:31:32;101166.78;;;30.56;42.12
3544;BME280;1786;52.870;9.578;2022-09-20T08:34:03;101163.78;;;30.71;42.69
3544;BME280;1786;52.870;9.578;2022-09-20T08:36:35;101168.81;;;31.58;41.59
3544;BME280;1786;52.870;9.578;2022-09-20T08:39:03;101165.66;;;32.29;40.81
3544;BME280;1786;52.870;9.578;2022-09-20T08:44:47;101188.63;;;36.44;37.33
3544;BME280;1786;52.870;9.578;2022-09-20T08:47:28;101195.16;;;37.91;35.80
3544;BME280;1786;52.870;9.578;2022-09-20T08:49:56;101198.50;;;39.08;33.30
3544;BME280;1786;52.870;9.578;2022-09-20T08:52:28;101208.31;;;39.83;32.32
3544;BME280;1786;52.870;9.578;2022-09-20T08:55:21;101213.31;;;40.81;31.82
3544;BME280;1786;52.870;9.578;2022-09-20T08:57:54;101209.97;;;41.34;30.93
3544;BME280;1786;52.870;9.578;2022-09-20T09:00:24;101209.25;;;40.58;30.78
3544;BME280;1786;52.870;9.578;2022-09-20T09:02:57;101215.69;;;40.38;31.35
3544;BME280;1786;52.870;9.578;2022-09-20T09:05:34;101202.94;;;39.09;31.83
3544;BME280;1786;52.870;9.578;2022-09-20T09:08:07;101197.44;;;37.99;33.84
3544;BME280;1786;52.870;9.578;2022-09-20T09:10:38;101208.28;;;38.63;33.74
3544;BME280;1786;52.870;9.578;2022-09-20T09:13:17;101205.25;;;39.79;32.78
3544;BME280;1786;52.870;9.578;2022-09-20T09:15:52;101209.63;;;40.11;30.58
3544;BME280;1786;52.870;9.578;2022-09-20T09:18:19;101212.53;;;40.65;31.38
3544;BME280;1786;52.870;9.578;2022-09-20T09:20:46;101210.38;;;41.12;30.52
3544;BME280;1786;52.870;9.578;2022-09-20T09:23:25;101220.09;;;41.09;30.90
3544;BME280;1786;52.870;9.578;2022-09-20T09:25:53;101215.31;;;41.20;30.95
3544;BME280;1786;52.870;9.578;2022-09-20T09:28:25;101218.25;;;41.39;30.25
3544;BME280;1786;52.870;9.578;2022-09-20T09:31:21;101223.78;;;41.79;30.47
3544;BME280;1786;52.870;9.578;2022-09-20T09:33:48;101215.50;;;41.34;29.82
3544;BME280;1786;52.870;9.578;2022-09-20T09:36:19;101218.84;;;40.81;28.60
3544;BME280;1786;52.870;9.578;2022-09-20T09:38:48;101220.31;;;40.63;30.98
3544;BME280;1786;52.870;9.578;2022-09-20T09:41:22;101218.50;;;40.23;31.88
3544;BME280;1786;52.870;9.578;2022-09-20T09:44:00;101213.78;;;40.23;30.78
3544;BME280;1786;52.870;9.578;2022-09-20T09:46:32;101219.06;;;39.89;31.12
3544;BME280;1786;52.870;9.578;2022-09-20T09:49:07;101210.59;;;38.82;31.15
3544;BME280;1786;52.870;9.578;2022-09-20T09:51:38;101209.75;;;38.23;31.90
3544;BME280;1786;52.870;9.578;2022-09-20T09:54:13;101203.69;;;35.86;32.66
3544;BME280;1786;52.870;9.578;2022-09-20T09:57:14;101194.81;;;34.93;33.73
3544;BME280;1786;52.870;9.578;2022-09-20T10:00:03;101195.03;;;33.92;36.46
3544;BME280;1786;52.870;9.578;2022-09-20T10:02:58;101182.50;;;33.60;36.46
3544;BME280;1786;52.870;9.578;2022-09-20T10:05:34;101190.97;;;33.29;36.14
3544;BME280;1786;52.870;9.578;2022-09-20T10:08:29;101190.09;;;32.24;35.63
3544;BME280;1786;52.870;9.578;2022-09-20T10:14:34;101189.22;;;32.86;36.42
3544;BME280;1786;52.870;9.578;2022-09-20T10:19:58;101195.94;;;34.16;36.29
3544;BME280;1786;52.870;9.578;2022-09-20T10:22:43;101186.38;;;34.30;35.36
3544;BME280;1786;52.870;9.578;2022-09-20T10:25:57;101186.06;;;33.61;35.93
3544;BME280;1786;52.870;9.578;2022-09-20T10:31:41;101196.38;;;31.50;37.88
3544;BME280;1786;52.870;9.578;2022-09-20T10:34:42;101185.84;;;30.70;38.11
3544;BME280;1786;52.870;9.578;2022-09-20T10:39:55;101173.09;;;30.57;37.81
3544;BME280;1786;52.870;9.578;2022-09-20T10:42:48;101178.56;;;30.57;38.74
3544;BME280;1786;52.870;9.578;2022-09-20T10:45:45;101177.97;;;30.35;38.62
3544;BME280;1786;52.870;9.578;2022-09-20T10:48:44;101180.91;;;30.20;38.69
3544;BME280;1786;52.870;9.578;2022-09-20T10:51:29;101189.69;;;30.49;37.19
3544;BME280;1786;52.870;9.578;2022-09-20T10:57:16;101191.03;;;30.91;36.72
3544;BME280;1786;52.870;9.578;2022-09-20T11:00:24;101197.81;;;31.59;36.88
3544;BME280;1786;52.870;9.578;2022-09-20T11:03:29;101200.44;;;32.41;36.43
3544;BME280;1786;52.870;9.578;2022-09-20T11:09:06;101203.84;;;32.61;36.14
3544;BME280;1786;52.870;9.578;2022-09-20T11:11:44;101209.13;;;31.87;36.27
3544;BME280;1786;52.870;9.578;2022-09-20T11:14:18;101215.56;;;32.00;35.72
3544;BME280;1786;52.870;9.578;2022-09-20T11:19:55;101213.91;;;31.99;34.20
3544;BME280;1786;52.870;9.578;2022-09-20T11:22:56;101207.56;;;32.48;36.10
3544;BME280;1786;52.870;9.578;2022-09-20T11:25:35;101211.34;;;32.66;37.67
3544;BME280;1786;52.870;9.578;2022-09-20T11:28:14;101206.34;;;32.81;37.26
3544;BME280;1786;52.870;9.578;2022-09-20T11:30:53;101212.81;;;33.89;35.76
3544;BME280;1786;52.870;9.578;2022-09-20T11:33:26;101214.72;;;33.89;34.27
3544;BME280;1786;52.870;9.578;2022-09-20T11:36:02;101216.16;;;33.79;35.85
3544;BME280;1786;52.870;9.578;2022-09-20T11:38:36;101215.47;;;34.31;34.13
3544;BME280;1786;52.870;9.578;2022-09-20T11:41:18;101215.88;;;33.57;35.67
3544;BME280;1786;52.870;9.578;2022-09-20T11:43:46;101214.25;;;32.89;36.08
3544;BME280;1786;52.870;9.578;2022-09-20T11:46:29;101212.16;;;33.22;35.75
3544;BME280;1786;52.870;9.578;2022-09-20T11:57:21;101222.31;;;31.34;37.50
3544;BME280;1786;52.870;9.578;2022-09-20T11:59:51;101223.19;;;31.27;37.34
3544;BME280;1786;52.870;9.578;2022-09-20T12:02:49;101227.16;;;30.87;36.96
3544;BME280;1786;52.870;9.578;2022-09-20T12:05:44;101222.59;;;30.60;38.26
3544;BME280;1786;52.870;9.578;2022-09-20T12:08:24;101228.00;;;30.74;38.29
3544;BME280;1786;52.870;9.578;2022-09-20T12:10:56;101230.00;;;30.40;39.51
3544;BME280;1786;52.870;9.578;2022-09-20T12:13:24;101226.13;;;29.34;41.25
3544;BME280;1786;52.870;9.578;2022-09-20T12:15:59;101223.22;;;29.49;42.04
3544;BME280;1786;52.870;9.578;2022-09-20T12:21:11;101220.66;;;30.81;40.38
3544;BME280;1786;52.870;9.578;2022-09-20T12:23:43;101223.44;;;30.68;40.05
3544;BME280;1786;52.870;9.578;2022-09-20T12:34:11;101230.88;;;31.51;39.54
3544;BME280;1786;52.870;9.578;2022-09-20T12:39:37;101224.22;;;31.33;39.42
3544;BME280;1786;52.870;9.578;2022-09-20T12:44:46;101226.22;;;31.83;38.82
3544;BME280;1786;52.870;9.578;2022-09-20T12:47:25;101228.44;;;31.92;39.05
3544;BME280;1786;52.870;9.578;2022-09-20T12:49:58;101228.97;;;32.08;39.00
3544;BME280;1786;52.870;9.578;2022-09-20T13:11:50;101224.97;;;33.93;35.55
3544;BME280;1786;52.870;9.578;2022-09-20T13:16:51;101223.56;;;34.73;35.47
3544;BME280;1786;52.870;9.578;2022-09-20T13:19:22;101222.59;;;34.79;35.28
3544;BME280;1786;52.870;9.578;2022-09-20T13:21:57;101223.34;;;34.63;34.16
3544;BME280;1786;52.870;9.578;2022-09-20T13:24:30;101230.03;;;34.43;34.78
3544;BME280;1786;52.870;9.578;2022-09-20T13:27:04;101226.69;;;35.05;35.24
3544;BME280;1786;52.870;9.578;2022-09-20T13:29:38;101231.13;;;34.95;34.31
3544;BME280;1786;52.870;9.578;2022-09-20T13:32:24;101232.53;;;34.33;34.57
3544;BME280;1786;52.870;9.578;2022-09-20T13:35:15;101229.94;;;33.61;34.89
3544;BME280;1786;52.870;9.578;2022-09-20T13:37:59;101225.78;;;33.70;35.43
3544;BME280;1786;52.870;9.578;2022-09-20T13:40:33;101226.56;;;34.48;33.55
3544;BME280;1786;52.870;9.578;2022-09-20T13:43:02;101230.31;;;34.82;33.43
3544;BME280;1786;52.870;9.578;2022-09-20T13:45:52;101237.09;;;34.28;34.86
3544;BME280;1786;52.870;9.578;2022-09-20T13:48:28;101223.69;;;34.66;33.65
3544;BME280;1786;52.870;9.578;2022-09-20T13:50:57;101229.19;;;35.07;34.62
3544;BME280;1786;52.870;9.578;2022-09-20T13:53:26;101234.22;;;35.10;33.90
3544;BME280;1786;52.870;9.578;2022-09-20T13:56:16;101236.38;;;35.08;33.53
3544;BME280;1786;52.870;9.578;2022-09-20T13:58:44;101226.44;;;35.36;33.69
3544;BME280;1786;52.870;9.578;2022-09-20T14:01:26;101237.94;;;35.32;32.37
3544;BME280;1786;52.870;9.578;2022-09-20T14:04:01;101219.19;;;35.29;31.85
3544;BME280;1786;52.870;9.578;2022-09-20T14:06:30;101226.84;;;35.27;33.68
3544;BME280;1786;52.870;9.578;2022-09-20T14:08:58;101228.47;;;34.71;34.20
3544;BME280;1786;52.870;9.578;2022-09-20T14:11:29;101221.03;;;34.83;34.73
3544;BME280;1786;52.870;9.578;2022-09-20T14:14:00;101233.38;;;34.34;34.33
3544;BME280;1786;52.870;9.578;2022-09-20T14:16:37;101228.09;;;34.56;34.24
3544;BME280;1786;52.870;9.578;2022-09-20T14:19:04;101226.44;;;34.31;35.05
3544;BME280;1786;52.870;9.578;2022-09-20T14:21:34;101224.63;;;34.72;35.44
3544;BME280;1786;52.870;9.578;2022-09-20T14:24:06;101227.03;;;34.68;34.03
3544;BME280;1786;52.870;9.578;2022-09-20T14:26:34;101228.50;;;33.58;34.50
3544;BME280;1786;52.870;9.578;2022-09-20T14:29:35;101218.53;;;33.76;35.04
3544;BME280;1786;52.870;9.578;2022-09-20T14:35:11;101222.22;;;33.39;35.42
3544;BME280;1786;52.870;9.578;2022-09-20T14:37:42;101221.78;;;33.54;33.60
3544;BME280;1786;52.870;9.578;2022-09-20T14:42:47;101226.28;;;33.37;35.79
3544;BME280;1786;52.870;9.578;2022-09-20T14:47:59;101219.78;;;32.83;35.45
3544;BME280;1786;52.870;9.578;2022-09-20T14:50:35;101229.03;;;33.18;35.37
3544;BME280;1786;52.870;9.578;2022-09-20T14:55:37;101225.94;;;33.15;34.69
3544;BME280;1786;52.870;9.578;2022-09-20T14:58:12;101228.31;;;33.11;34.30
3544;BME280;1786;52.870;9.578;2022-09-20T15:00:50;101237.28;;;32.82;34.75
3544;BME280;1786;52.870;9.578;2022-09-20T15:03:27;101232.84;;;32.44;32.94
3544;BME280;1786;52.870;9.578;2022-09-20T15:05:56;101237.13;;;32.58;33.72
3544;BME280;1786;52.870;9.578;2022-09-20T15:08:23;101240.41;;;32.48;36.13
3544;BME280;1786;52.870;9.578;2022-09-20T15:10:50;101240.84;;;33.19;34.45
3544;BME280;1786;52.870;9.578;2022-09-20T15:13:17;101245.19;;;32.71;34.18
3544;BME280;1786;52.870;9.578;2022-09-20T15:15:47;101247.31;;;32.69;34.42
3544;BME280;1786;52.870;9.578;2022-09-20T15:18:36;101250.69;;;32.71;36.81
3544;BME280;1786;52.870;9.578;2022-09-20T15:21:05;101243.28;;;32.90;34.18
3544;BME280;1786;52.870;9.578;2022-09-20T15:23:32;101242.97;;;33.17;35.43
3544;BME280;1786;52.870;9.578;2022-09-20T15:25:58;101242.13;;;32.98;34.48
3544;BME280;1786;52.870;9.578;2022-09-20T15:28:25;101243.34;;;32.65;36.05
3544;BME280;1786;52.870;9.578;2022-09-20T15:30:53;101243.38;;;31.97;35.33
3544;BME280;1786;52.870;9.578;2022-09-20T15:33:20;101246.44;;;32.07;35.40
3544;BME280;1786;52.870;9.578;2022-09-20T15:35:47;101245.47;;;31.24;35.71
3544;BME280;1786;52.870;9.578;2022-09-20T15:38:16;101240.41;;;31.28;35.90
3544;BME280;1786;52.870;9.578;2022-09-20T15:40:45;101243.34;;;31.33;36.05
3544;BME280;1786;52.870;9.578;2022-09-20T15:43:15;101245.19;;;31.46;35.99
3544;BME280;1786;52.870;9.578;2022-09-20T15:46:21;101251.16;;;31.61;36.37
3544;BME280;1786;52.870;9.578;2022-09-20T15:48:48;101252.53;;;31.45;36.11
3544;BME280;1786;52.870;9.578;2022-09-20T15:51:15;101252.09;;;31.48;36.06
3544;BME280;1786;52.870;9.578;2022-09-20T15:53:55;101254.22;;;31.46;35.59
3544;BME280;1786;52.870;9.578;2022-09-20T15:56:24;101245.34;;;31.13;36.27
3544;BME280;1786;52.870;9.578;2022-09-20T15:59:04;101252.94;;;31.49;36.42
3544;BME280;1786;52.870;9.578;2022-09-20T16:01:38;101257.44;;;31.68;36.86
3544;BME280;1786;52.870;9.578;2022-09-20T16:04:14;101252.56;;;31.39;36.82
3544;BME280;1786;52.870;9.578;2022-09-20T16:06:42;101255.44;;;31.51;35.76
3544;BME280;1786;52.870;9.578;2022-09-20T16:09:09;101258.22;;;31.76;35.73
3544;BME280;1786;52.870;9.578;2022-09-20T16:11:36;101258.03;;;31.32;37.54
3544;BME280;1786;52.870;9.578;2022-09-20T16:14:04;101259.28;;;32.06;36.81
3544;BME280;1786;52.870;9.578;2022-09-20T16:16:32;101271.16;;;31.87;35.66
3544;BME280;1786;52.870;9.578;2022-09-20T16:19:06;101272.31;;;31.73;36.53
3544;BME280;1786;52.870;9.578;2022-09-20T16:21:48;101267.25;;;31.44;36.73
3544;BME280;1786;52.870;9.578;2022-09-20T16:24:24;101269.09;;;30.99;37.36
3544;BME280;1786;52.870;9.578;2022-09-20T16:26:52;101282.66;;;30.47;38.62
3544;BME280;1786;52.870;9.578;2022-09-20T16:29:18;101280.56;;;30.49;38.53
3544;BME280;1786;52.870;9.578;2022-09-20T16:31:48;101281.22;;;31.10;37.35
3544;BME280;1786;52.870;9.578;2022-09-20T16:34:19;101281.63;;;31.20;38.07
3544;BME280;1786;52.870;9.578;2022-09-20T16:36:49;101284.59;;;31.12;36.93
3544;BME280;1786;52.870;9.578;2022-09-20T16:39:17;101285.84;;;31.16;38.64
3544;BME280;1786;52.870;9.578;2022-09-20T16:41:45;101290.97;;;30.92;39.33
3544;BME280;1786;52.870;9.578;2022-09-20T16:44:12;101291.41;;;29.96;39.24
3544;BME280;1786;52.870;9.578;2022-09-20T16:46:39;101288.38;;;29.58;39.16
3544;BME280;1786;52.870;9.578;2022-09-20T16:49:07;101290.59;;;30.02;38.86
3544;BME280;1786;52.870;9.578;2022-09-20T16:51:38;101282.91;;;29.44;40.72
3544;BME280;1786;52.870;9.578;2022-09-20T16:54:07;101291.63;;;30.01;39.28
3544;BME280;1786;52.870;9.578;2022-09-20T16:56:44;101305.72;;;30.25;39.65
3544;BME280;1786;52.870;9.578;2022-09-20T16:59:13;101299.63;;;30.36;39.58
3544;BME280;1786;52.870;9.578;2022-09-20T17:01:41;101300.25;;;30.05;38.14
3544;BME280;1786;52.870;9.578;2022-09-20T17:04:09;101306.13;;;30.02;38.67
3544;BME280;1786;52.870;9.578;2022-09-20T17:06:39;101312.63;;;30.07;38.76